createdAt,value
2022-09-03T00:00:00.620Z,16.55
2022-09-03T00:02:47.454Z,16.48
2022-09-03T00:05:41.780Z,16.28
2022-09-03T00:08:33.843Z,16.16
2022-09-03T00:11:13.519Z,16.04
2022-09-03T00:14:03.486Z,16.24
2022-09-03T00:16:41.472Z,16.45
2022-09-03T00:19:09.266Z,16.47
2022-09-03T00:21:52.750Z,16.15
2022-09-03T00:24:23.637Z,16.16
2022-09-03T00:26:55.973Z,16.06
2022-09-03T00:30:05.148Z,15.88
2022-09-03T00:33:07.037Z,15.88
2022-09-03T00:35:37.022Z,16.12
2022-09-03T00:38:05.943Z,16.07
2022-09-03T00:41:07.515Z,15.98
2022-09-03T00:44:07.586Z,15.88
2022-09-03T00:46:34.950Z,15.99
2022-09-03T00:49:29.685Z,15.93
2022-09-03T00:52:15.076Z,15.77
2022-09-03T00:55:04.464Z,15.63
2022-09-03T00:57:47.961Z,15.87
2022-09-03T01:00:18.526Z,16.05
2022-09-03T01:03:33.983Z,15.97
2022-09-03T01:06:18.989Z,15.83
2022-09-03T01:09:15.877Z,15.70
2022-09-03T01:12:16.545Z,15.56
2022-09-03T01:14:59.566Z,15.95
2022-09-03T01:17:46.478Z,16.19
2022-09-03T01:20:26.168Z,16.27
2022-09-03T01:23:14.514Z,16.39
2022-09-03T01:26:00.802Z,16.46
2022-09-03T01:28:42.278Z,16.48
2022-09-03T01:31:29.703Z,16.28
2022-09-03T01:34:06.581Z,16.02
2022-09-03T01:37:13.405Z,15.60
2022-09-03T01:40:00.081Z,15.67
2022-09-03T01:42:55.486Z,15.54
2022-09-03T01:45:23.404Z,15.43
2022-09-03T01:48:30.812Z,15.56
2022-09-03T01:51:23.891Z,15.61
2022-09-03T01:54:10.965Z,15.70
2022-09-03T01:57:35.718Z,16.08
2022-09-03T02:00:10.165Z,16.13
2022-09-03T02:02:41.302Z,16.13
2022-09-03T02:05:12.601Z,16.02
2022-09-03T02:07:43.615Z,15.97
2022-09-03T02:10:17.365Z,16.05
2022-09-03T02:12:54.588Z,15.95
2022-09-03T02:15:23.814Z,15.81
2022-09-03T02:17:55.673Z,15.87
2022-09-03T02:20:27.404Z,16.06
2022-09-03T02:22:57.126Z,15.88
2022-09-03T02:25:31.073Z,15.91
2022-09-03T02:27:58.713Z,15.95
2022-09-03T02:30:26.532Z,16.19
2022-09-03T02:32:53.993Z,16.09
2022-09-03T02:35:21.464Z,16.09
2022-09-03T02:37:50.304Z,15.91
2022-09-03T02:40:17.966Z,15.83
2022-09-03T02:42:46.991Z,15.51
2022-09-03T02:45:36.626Z,15.56
2022-09-03T02:48:04.335Z,15.49
2022-09-03T02:50:32.121Z,15.44
2022-09-03T02:52:59.761Z,15.70
2022-09-03T02:55:27.326Z,15.90
2022-09-03T02:57:56.905Z,15.84
2022-09-03T03:00:24.647Z,15.88
2022-09-03T03:02:52.665Z,15.86
2022-09-03T03:05:50.978Z,15.83
2022-09-03T03:08:21.672Z,15.86
2022-09-03T03:10:50.977Z,15.83
2022-09-03T03:13:18.839Z,15.88
2022-09-03T03:15:47.930Z,15.84
2022-09-03T03:18:17.671Z,16.00
2022-09-03T03:20:45.261Z,15.80
2022-09-03T03:23:12.725Z,15.81
2022-09-03T03:25:40.756Z,15.60
2022-09-03T03:28:08.699Z,15.57
2022-09-03T03:30:39.874Z,15.59
2022-09-03T03:33:07.705Z,15.73
2022-09-03T03:35:35.977Z,15.62
2022-09-03T03:38:06.238Z,15.59
2022-09-03T03:40:34.841Z,15.73
2022-09-03T03:43:02.338Z,15.62
2022-09-03T03:45:29.795Z,15.65
2022-09-03T03:47:59.447Z,15.61
2022-09-03T03:50:28.079Z,15.54
2022-09-03T03:52:56.295Z,15.71
2022-09-03T03:55:27.161Z,15.53
2022-09-03T03:57:54.755Z,15.55
2022-09-03T04:00:22.352Z,15.61
2022-09-03T04:02:53.091Z,15.48
2022-09-03T04:05:23.669Z,15.26
2022-09-03T04:07:54.749Z,15.28
2022-09-03T04:10:22.246Z,15.56
2022-09-03T04:12:49.724Z,15.52
2022-09-03T04:15:17.514Z,15.46
2022-09-03T04:17:51.228Z,15.41
2022-09-03T04:20:19.030Z,15.32
2022-09-03T04:22:49.093Z,15.27
2022-09-03T04:25:19.697Z,15.32
2022-09-03T04:27:47.167Z,15.25
2022-09-03T04:30:15.483Z,15.32
2022-09-03T04:32:56.356Z,15.38
2022-09-03T04:35:25.760Z,15.41
2022-09-03T04:37:55.238Z,15.36
2022-09-03T04:40:22.952Z,15.48
2022-09-03T04:42:51.039Z,15.51
2022-09-03T04:45:19.691Z,15.36
2022-09-03T04:47:57.119Z,15.69
2022-09-03T04:50:25.693Z,15.51
2022-09-03T04:53:07.773Z,15.67
2022-09-03T04:55:37.356Z,15.80
2022-09-03T04:58:05.476Z,15.82
2022-09-03T05:00:36.011Z,15.98
2022-09-03T05:03:05.295Z,16.06
2022-09-03T05:05:35.826Z,16.13
2022-09-03T05:08:04.242Z,16.10
2022-09-03T05:10:32.877Z,16.29
2022-09-03T05:13:04.842Z,16.14
2022-09-03T05:15:33.355Z,16.26
2022-09-03T05:18:04.241Z,16.16
2022-09-03T05:20:35.712Z,16.27
2022-09-03T05:23:04.153Z,16.30
2022-09-03T05:25:33.903Z,16.30
2022-09-03T05:28:02.093Z,16.34
2022-09-03T05:30:30.153Z,16.59
2022-09-03T05:32:57.955Z,16.66
2022-09-03T05:35:30.092Z,16.65
2022-09-03T05:37:58.173Z,16.63
2022-09-03T05:40:29.576Z,16.85
2022-09-03T05:42:59.214Z,16.91
2022-09-03T05:45:32.761Z,16.92
2022-09-03T05:48:01.894Z,16.99
2022-09-03T05:50:30.731Z,17.13
2022-09-03T05:52:59.235Z,17.30
2022-09-03T05:55:28.923Z,17.21
2022-09-03T05:58:00.617Z,17.31
2022-09-03T06:00:28.504Z,17.50
2022-09-03T06:02:56.348Z,17.50
2022-09-03T06:05:23.901Z,17.61
2022-09-03T06:07:52.144Z,17.67
2022-09-03T06:10:25.009Z,17.79
2022-09-03T06:12:53.679Z,17.89
2022-09-03T06:15:21.804Z,17.86
2022-09-03T06:17:49.364Z,18.02
2022-09-03T06:20:16.965Z,18.05
2022-09-03T06:22:49.348Z,18.33
2022-09-03T06:25:17.184Z,18.13
2022-09-03T06:27:45.913Z,18.31
2022-09-03T06:30:14.026Z,18.50
2022-09-03T06:32:45.864Z,18.56
2022-09-03T06:35:13.808Z,18.71
2022-09-03T06:37:41.836Z,18.76
2022-09-03T06:40:13.289Z,18.71
2022-09-03T06:42:46.025Z,18.81
2022-09-03T06:45:14.222Z,18.64
2022-09-03T06:47:42.050Z,18.88
2022-09-03T06:50:10.305Z,19.03
2022-09-03T06:52:37.845Z,19.12
2022-09-03T06:55:06.167Z,19.06
2022-09-03T06:57:33.628Z,19.14
2022-09-03T07:00:04.372Z,19.35
2022-09-03T07:02:32.435Z,19.23
2022-09-03T07:05:00.528Z,19.22
2022-09-03T07:07:28.092Z,19.32
2022-09-03T07:09:55.842Z,19.35
2022-09-03T07:12:23.287Z,19.46
2022-09-03T07:14:51.129Z,19.08
2022-09-03T07:17:19.071Z,19.18
2022-09-03T07:19:46.621Z,19.28
2022-09-03T07:22:14.186Z,19.64
2022-09-03T07:24:43.349Z,19.41
2022-09-03T07:27:29.362Z,19.57
2022-09-03T07:30:10.697Z,19.52
2022-09-03T07:32:40.641Z,19.72
2022-09-03T07:35:08.794Z,19.93
2022-09-03T07:37:37.475Z,19.87
2022-09-03T07:40:05.965Z,19.88
2022-09-03T07:42:36.248Z,19.70
2022-09-03T07:45:18.763Z,19.93
2022-09-03T07:47:49.999Z,20.06
2022-09-03T07:50:21.450Z,20.05
2022-09-03T07:52:49.497Z,19.96
2022-09-03T07:55:20.522Z,19.89
2022-09-03T07:57:48.152Z,19.86
2022-09-03T08:00:18.517Z,20.08
2022-09-03T08:02:46.657Z,20.22
2022-09-03T08:05:14.453Z,20.34
2022-09-03T08:07:41.975Z,20.35
2022-09-03T08:10:09.842Z,20.40
2022-09-03T08:12:37.282Z,20.49
2022-09-03T08:15:05.279Z,20.44
2022-09-03T08:17:34.159Z,20.53
2022-09-03T08:20:04.643Z,20.62
2022-09-03T08:22:32.429Z,20.65
2022-09-03T08:25:01.786Z,20.80
2022-09-03T08:27:30.240Z,20.87
2022-09-03T08:30:04.628Z,20.92
2022-09-03T08:34:59.815Z,21.06
2022-09-03T08:37:33.222Z,20.97
2022-09-03T08:40:00.817Z,20.92
2022-09-03T08:42:37.893Z,21.08
2022-09-03T08:45:16.893Z,21.13
2022-09-03T08:48:01.982Z,21.31
2022-09-03T08:50:39.331Z,21.37
2022-09-03T08:53:14.169Z,21.23
2022-09-03T08:55:56.858Z,21.42
2022-09-03T08:58:38.757Z,21.30
2022-09-03T09:01:10.552Z,21.13
2022-09-03T09:03:53.685Z,21.47
2022-09-03T09:06:27.186Z,21.63
2022-09-03T09:09:10.982Z,21.64
2022-09-03T09:11:41.084Z,21.35
2022-09-03T09:14:20.598Z,21.53
2022-09-03T09:16:58.596Z,21.68
2022-09-03T09:19:41.873Z,21.88
2022-09-03T09:22:12.042Z,21.88
2022-09-03T09:24:47.588Z,21.74
2022-09-03T09:27:19.568Z,21.90
2022-09-03T09:29:50.001Z,21.98
2022-09-03T09:32:21.724Z,22.08
2022-09-03T09:34:53.309Z,22.17
2022-09-03T09:37:21.689Z,22.20
2022-09-03T09:39:58.326Z,22.08
2022-09-03T09:42:27.899Z,22.16
2022-09-03T09:44:55.515Z,22.17
2022-09-03T09:47:28.371Z,22.31
2022-09-03T09:50:01.247Z,22.27
2022-09-03T09:52:31.800Z,22.54
2022-09-03T09:55:14.009Z,22.66
2022-09-03T09:57:42.089Z,22.16
2022-09-03T10:00:16.410Z,22.38
2022-09-03T10:02:52.499Z,22.53
2022-09-03T10:05:40.925Z,22.70
2022-09-03T10:08:22.220Z,22.68
2022-09-03T10:10:51.977Z,22.75
2022-09-03T10:13:25.239Z,22.82
2022-09-03T10:16:08.430Z,22.80
2022-09-03T10:18:50.873Z,22.81
2022-09-03T10:21:41.558Z,22.69
2022-09-03T10:24:33.624Z,23.01
2022-09-03T10:27:07.090Z,22.96
2022-09-03T10:29:43.524Z,23.04
2022-09-03T10:32:24.186Z,23.03
2022-09-03T10:35:20.749Z,23.23
2022-09-03T10:38:00.780Z,23.38
2022-09-03T10:40:38.051Z,23.32
2022-09-03T10:43:16.048Z,23.62
2022-09-03T10:46:06.530Z,23.21
2022-09-03T10:48:53.406Z,23.50
2022-09-03T10:51:28.277Z,23.61
2022-09-03T10:54:04.971Z,23.82
2022-09-03T10:56:39.954Z,23.92
2022-09-03T10:59:33.823Z,24.01
2022-09-03T11:02:23.438Z,23.90
2022-09-03T11:05:03.103Z,24.08
2022-09-03T11:07:42.936Z,24.09
2022-09-03T11:10:30.623Z,24.35
2022-09-03T11:13:10.598Z,24.29
2022-09-03T11:15:49.876Z,24.34
2022-09-03T11:18:51.795Z,24.22
2022-09-03T11:21:23.366Z,24.47
2022-09-03T11:24:00.605Z,24.70
2022-09-03T11:26:36.853Z,24.86
2022-09-03T11:29:18.413Z,24.94
2022-09-03T11:32:02.162Z,24.99
2022-09-03T11:34:54.603Z,25.11
2022-09-03T11:37:24.764Z,25.11
2022-09-03T11:39:57.047Z,25.10
2022-09-03T11:42:37.159Z,25.03
2022-09-03T11:45:35.044Z,25.15
2022-09-03T11:48:02.984Z,25.22
2022-09-03T11:53:10.793Z,25.48
2022-09-03T11:56:13.120Z,25.65
2022-09-03T11:58:43.094Z,25.66
2022-09-03T12:01:19.283Z,25.74
2022-09-03T12:03:53.367Z,25.80
2022-09-03T12:06:35.946Z,25.87
2022-09-03T12:09:33.019Z,25.63
2022-09-03T12:12:08.687Z,25.98
2022-09-03T12:14:57.341Z,26.26
2022-09-03T12:17:33.213Z,26.59
2022-09-03T12:20:01.194Z,26.57
2022-09-03T12:22:30.220Z,26.86
2022-09-03T12:25:08.899Z,26.88
2022-09-03T12:27:45.076Z,26.07
2022-09-03T12:30:23.034Z,26.06
2022-09-03T12:32:52.480Z,25.65
2022-09-03T12:38:18.552Z,25.78
2022-09-03T12:43:38.953Z,25.78
2022-09-03T12:46:14.686Z,25.20
2022-09-03T12:52:05.910Z,26.23
2022-09-03T12:54:50.343Z,26.14
2022-09-03T12:57:22.044Z,26.03
2022-09-03T12:59:52.546Z,26.08
2022-09-03T13:02:28.593Z,26.24
2022-09-03T13:05:02.346Z,25.98
2022-09-03T13:07:33.770Z,26.00
2022-09-03T13:10:05.618Z,26.16
2022-09-03T13:12:35.691Z,26.41
2022-09-03T13:15:09.474Z,26.33
2022-09-03T13:17:48.243Z,26.41
2022-09-03T13:20:24.235Z,26.39
2022-09-03T13:23:30.941Z,26.47
2022-09-03T13:26:16.383Z,26.12
2022-09-03T13:28:53.082Z,26.05
2022-09-03T13:32:06.091Z,25.88
2022-09-03T13:34:43.189Z,25.96
2022-09-03T13:37:37.887Z,25.83
2022-09-03T13:40:16.216Z,25.92
2022-09-03T13:42:55.706Z,25.98
2022-09-03T13:45:31.001Z,26.09
2022-09-03T13:48:36.874Z,26.36
2022-09-03T13:51:14.010Z,26.58
2022-09-03T13:53:58.141Z,26.71
2022-09-03T13:56:43.990Z,26.94
2022-09-03T13:59:43.173Z,27.00
2022-09-03T14:02:45.075Z,27.26
2022-09-03T14:05:41.280Z,27.43
2022-09-03T14:08:38.874Z,27.65
2022-09-03T14:11:26.869Z,27.83
2022-09-03T14:14:03.844Z,27.90
2022-09-03T14:17:04.615Z,27.97
2022-09-03T14:19:58.398Z,28.14
2022-09-03T14:22:40.119Z,28.35
2022-09-03T14:25:18.416Z,28.24
2022-09-03T14:27:46.489Z,28.24
2022-09-03T14:30:32.694Z,28.19
2022-09-03T14:33:45.779Z,28.23
2022-09-03T14:36:53.468Z,28.13
2022-09-03T14:39:30.846Z,28.18
2022-09-03T14:42:17.795Z,27.93
2022-09-03T14:45:01.335Z,27.99
2022-09-03T14:47:51.447Z,27.95
2022-09-03T14:50:24.079Z,27.75
2022-09-03T14:53:15.404Z,27.49
2022-09-03T14:55:52.548Z,27.43
2022-09-03T14:59:01.824Z,27.31
2022-09-03T15:01:38.530Z,27.16
2022-09-03T15:04:31.658Z,26.34
2022-09-03T15:07:22.863Z,26.83
2022-09-03T15:10:02.582Z,26.80
2022-09-03T15:12:37.609Z,26.82
2022-09-03T15:15:11.758Z,26.60
2022-09-03T15:18:21.944Z,26.51
2022-09-03T15:20:54.916Z,26.38
2022-09-03T15:23:34.776Z,26.34
2022-09-03T15:26:24.872Z,26.25
2022-09-03T15:29:23.715Z,26.22
2022-09-03T15:32:11.594Z,26.08
2022-09-03T15:34:56.747Z,25.98
2022-09-03T15:37:36.369Z,25.79
2022-09-03T15:40:30.081Z,25.80
2022-09-03T15:43:09.291Z,25.86
2022-09-03T15:46:01.165Z,25.53
2022-09-03T15:48:46.276Z,25.41
2022-09-03T15:51:27.368Z,25.61
2022-09-03T15:54:20.161Z,25.65
2022-09-03T15:56:56.017Z,25.64
2022-09-03T15:59:52.826Z,25.57
2022-09-03T16:02:40.206Z,25.63
2022-09-03T16:05:55.591Z,25.52
2022-09-03T16:08:45.317Z,25.48
2022-09-03T16:11:20.265Z,25.37
2022-09-03T16:14:21.486Z,25.44
2022-09-03T16:16:56.218Z,25.38
2022-09-03T16:19:29.426Z,25.34
2022-09-03T16:22:05.258Z,25.32
2022-09-03T16:24:39.201Z,25.23
2022-09-03T16:27:31.148Z,25.20
2022-09-03T16:30:11.733Z,25.12
2022-09-03T16:33:10.930Z,24.88
2022-09-03T16:36:11.207Z,24.69
2022-09-03T16:39:08.687Z,24.62
2022-09-03T16:41:47.355Z,24.64
2022-09-03T16:44:49.251Z,24.66
2022-09-03T16:47:47.065Z,24.49
2022-09-03T16:50:30.713Z,24.00
2022-09-03T16:53:07.007Z,23.63
2022-09-03T16:55:57.436Z,23.36
2022-09-03T16:58:38.025Z,23.10
2022-09-03T17:01:18.129Z,22.89
2022-09-03T17:04:14.740Z,22.67
2022-09-03T17:07:13.114Z,22.24
2022-09-03T17:09:44.732Z,22.27
2022-09-03T17:12:39.202Z,21.91
2022-09-03T17:15:34.925Z,21.66
2022-09-03T17:18:25.423Z,21.63
2022-09-03T17:21:00.987Z,21.33
2022-09-03T17:23:50.352Z,21.35
2022-09-03T17:26:39.949Z,21.41
2022-09-03T17:29:18.362Z,21.59
2022-09-03T17:31:55.362Z,21.56
2022-09-03T17:34:52.394Z,21.30
2022-09-03T17:37:40.414Z,20.85
2022-09-03T17:40:25.689Z,20.77
2022-09-03T17:43:13.251Z,20.85
2022-09-03T17:45:48.106Z,20.58
2022-09-03T17:48:30.801Z,20.66
2022-09-03T17:51:03.751Z,20.54
2022-09-03T17:53:39.833Z,20.11
2022-09-03T17:56:25.456Z,19.95
2022-09-03T17:59:12.842Z,19.79
2022-09-03T18:01:49.574Z,19.65
2022-09-03T18:04:42.918Z,19.63
2022-09-03T18:07:38.252Z,19.67
2022-09-03T18:10:25.333Z,19.65
2022-09-03T18:13:28.985Z,19.59
2022-09-03T18:16:02.703Z,19.63
2022-09-03T18:18:46.880Z,19.55
2022-09-03T18:21:49.027Z,19.70
2022-09-03T18:24:35.664Z,19.90
2022-09-03T18:27:32.873Z,20.05
2022-09-03T18:30:28.537Z,20.15
2022-09-03T18:33:16.076Z,20.26
2022-09-03T18:36:06.952Z,20.25
2022-09-03T18:38:56.740Z,20.43
2022-09-03T18:42:02.287Z,20.46
2022-09-03T18:45:55.118Z,20.36
2022-09-03T18:49:12.247Z,20.36
2022-09-03T18:52:25.537Z,20.16
2022-09-03T18:56:03.981Z,20.08
2022-09-03T18:59:20.897Z,20.14
2022-09-03T19:02:18.629Z,19.90
2022-09-03T19:05:18.470Z,19.74
2022-09-03T19:08:33.517Z,19.76
2022-09-03T19:12:02.821Z,19.84
2022-09-03T19:15:20.148Z,19.79
2022-09-03T19:18:47.270Z,19.78
2022-09-03T19:21:51.641Z,19.66
2022-09-03T19:24:45.462Z,19.67
2022-09-03T19:28:21.602Z,19.37
2022-09-03T19:31:32.888Z,19.46
2022-09-03T19:34:50.934Z,19.62
2022-09-03T19:37:57.276Z,19.17
2022-09-03T19:41:08.801Z,19.32
2022-09-03T19:44:09.924Z,19.49
2022-09-03T19:47:25.806Z,19.39
2022-09-03T19:50:31.801Z,19.22
2022-09-03T19:53:37.110Z,18.91
2022-09-03T19:56:40.519Z,19.18
2022-09-03T19:59:38.888Z,19.28
2022-09-03T20:02:25.823Z,19.04
2022-09-03T20:05:15.489Z,18.78
2022-09-03T20:08:06.971Z,19.08
2022-09-03T20:10:37.477Z,19.11
2022-09-03T20:13:16.423Z,18.74
2022-09-03T20:16:08.020Z,18.94
2022-09-03T20:18:49.558Z,19.18
2022-09-03T20:21:21.008Z,18.95
2022-09-03T20:23:52.856Z,18.74
2022-09-03T20:26:42.270Z,19.00
2022-09-03T20:29:56.903Z,18.76
2022-09-03T20:32:35.913Z,18.83
2022-09-03T20:35:13.381Z,18.69
2022-09-03T20:37:45.375Z,18.89
2022-09-03T20:40:34.950Z,18.77
2022-09-03T20:43:09.292Z,18.92
2022-09-03T20:46:28.618Z,18.84
2022-09-03T20:49:10.210Z,18.90
2022-09-03T20:51:53.326Z,18.90
2022-09-03T20:54:32.087Z,18.72
2022-09-03T20:57:28.681Z,18.84
2022-09-03T21:00:09.412Z,18.65
2022-09-03T21:02:48.677Z,18.59
2022-09-03T21:05:30.335Z,18.76
2022-09-03T21:08:04.510Z,18.74
2022-09-03T21:10:48.599Z,19.05
2022-09-03T21:13:25.186Z,18.74
2022-09-03T21:16:05.711Z,18.65
2022-09-03T21:19:07.064Z,18.52
2022-09-03T21:22:06.757Z,18.46
2022-09-03T21:24:53.063Z,18.48
2022-09-03T21:27:29.261Z,18.25
2022-09-03T21:30:04.998Z,18.45
2022-09-03T21:32:56.015Z,18.38
2022-09-03T21:35:28.422Z,18.34
2022-09-03T21:38:07.134Z,18.23
2022-09-03T21:40:43.895Z,18.36
2022-09-03T21:43:22.499Z,18.40
2022-09-03T21:45:56.200Z,18.54
2022-09-03T21:48:39.142Z,18.50
2022-09-03T21:51:14.895Z,18.46
2022-09-03T21:53:53.165Z,18.46
2022-09-03T21:56:54.329Z,18.39
2022-09-03T21:59:59.710Z,18.34
2022-09-03T22:02:29.296Z,18.41
2022-09-03T22:04:58.468Z,18.45
2022-09-03T22:07:58.830Z,18.42
2022-09-03T22:10:31.912Z,18.38
2022-09-03T22:13:21.453Z,18.38
2022-09-03T22:15:51.056Z,18.30
2022-09-03T22:18:36.934Z,18.07
2022-09-03T22:21:23.442Z,18.22
2022-09-03T22:24:07.525Z,17.96
2022-09-03T22:27:05.018Z,17.93
2022-09-03T22:30:08.988Z,18.03
2022-09-03T22:33:11.846Z,17.92
2022-09-03T22:36:03.995Z,17.93
2022-09-03T22:38:43.875Z,17.93
2022-09-03T22:41:25.148Z,17.99
2022-09-03T22:44:02.251Z,18.00
2022-09-03T22:46:39.072Z,18.05
2022-09-03T22:49:26.118Z,17.98
2022-09-03T22:52:09.982Z,18.07
2022-09-03T22:54:54.406Z,17.93
2022-09-03T22:57:23.129Z,17.80
2022-09-03T23:00:05.088Z,17.73
2022-09-03T23:02:33.463Z,17.85
2022-09-03T23:05:27.727Z,17.85
2022-09-03T23:07:59.096Z,17.71
2022-09-03T23:10:31.279Z,17.57
2022-09-03T23:13:16.854Z,17.65
2022-09-03T23:15:46.355Z,17.61
2022-09-03T23:18:27.052Z,17.72
2022-09-03T23:21:22.327Z,17.76
2022-09-03T23:23:54.182Z,17.77
2022-09-03T23:26:29.465Z,17.77
2022-09-03T23:29:23.616Z,17.83
2022-09-03T23:31:52.902Z,17.78
2022-09-03T23:34:20.741Z,17.63
2022-09-03T23:40:25.837Z,17.77
2022-09-03T23:43:24.808Z,17.53
2022-09-03T23:46:11.280Z,17.59
2022-09-03T23:49:01.162Z,17.57
2022-09-03T23:52:00.042Z,17.46
2022-09-03T23:54:51.962Z,17.38
2022-09-03T23:57:41.639Z,17.26
